sensor_id;sensor_type;location;lat;lon;timestamp;temperature;humidity
14749;DHT22;7466;53.574;9.976;2022-12-16T00:00:23;-1.10;99.90
14749;DHT22;7466;53.574;9.976;2022-12-16T00:02:50;-1.10;99.90
14749;DHT22;7466;53.574;9.976;2022-12-16T00:05:17;-1.20;99.90
14749;DHT22;7466;53.574;9.976;2022-12-16T00:07:44;-1.10;99.90
14749;DHT22;7466;53.574;9.976;2022-12-16T00:10:11;-1.20;99.90
14749;DHT22;7466;53.574;9.976;2022-12-16T00:12:40;-1.20;99.90
14749;DHT22;7466;53.574;9.976;2022-12-16T00:15:07;-1.20;99.90
14749;DHT22;7466;53.574;9.976;2022-12-16T00:17:35;-1.20;99.90
14749;DHT22;7466;53.574;9.976;2022-12-16T00:20:04;-1.20;99.90
14749;DHT22;7466;53.574;9.976;2022-12-16T00:22:31;-1.10;99.90
14749;DHT22;7466;53.574;9.976;2022-12-16T00:24:58;-1.10;99.90
14749;DHT22;7466;53.574;9.976;2022-12-16T00:27:25;-1.10;99.90
14749;DHT22;7466;53.574;9.976;2022-12-16T00:29:51;-1.10;99.90
14749;DHT22;7466;53.574;9.976;2022-12-16T00:32:18;-1.10;99.90
14749;DHT22;7466;53.574;9.976;2022-12-16T00:34:46;-1.10;99.90
14749;DHT22;7466;53.574;9.976;2022-12-16T00:37:13;-1.10;99.90
14749;DHT22;7466;53.574;9.976;2022-12-16T00:39:40;-1.10;99.90
14749;DHT22;7466;53.574;9.976;2022-12-16T00:42:06;-1.10;99.90
14749;DHT22;7466;53.574;9.976;2022-12-16T00:44:33;-1.10;99.90
14749;DHT22;7466;53.574;9.976;2022-12-16T00:47:00;-1.20;99.90
14749;DHT22;7466;53.574;9.976;2022-12-16T00:49:26;-1.20;99.90
14749;DHT22;7466;53.574;9.976;2022-12-16T00:51:55;-1.10;99.90
14749;DHT22;7466;53.574;9.976;2022-12-16T00:54:21;-1.20;99.90
14749;DHT22;7466;53.574;9.976;2022-12-16T00:56:48;-1.20;99.90
14749;DHT22;7466;53.574;9.976;2022-12-16T00:59:15;-1.20;99.90
14749;DHT22;7466;53.574;9.976;2022-12-16T01:01:42;-1.20;99.90
14749;DHT22;7466;53.574;9.976;2022-12-16T01:04:08;-1.20;99.90
14749;DHT22;7466;53.574;9.976;2022-12-16T01:06:35;-1.10;99.90
14749;DHT22;7466;53.574;9.976;2022-12-16T01:09:03;-1.10;99.90
14749;DHT22;7466;53.574;9.976;2022-12-16T01:11:30;-1.10;99.90
14749;DHT22;7466;53.574;9.976;2022-12-16T01:13:56;-1.10;99.90
14749;DHT22;7466;53.574;9.976;2022-12-16T01:16:24;-1.10;99.90
14749;DHT22;7466;53.574;9.976;2022-12-16T01:18:50;-1.20;99.90
14749;DHT22;7466;53.574;9.976;2022-12-16T01:21:17;-1.10;99.90
14749;DHT22;7466;53.574;9.976;2022-12-16T01:23:46;-1.20;99.90
14749;DHT22;7466;53.574;9.976;2022-12-16T01:26:16;-1.10;99.90
14749;DHT22;7466;53.574;9.976;2022-12-16T01:28:43;-1.10;99.90
14749;DHT22;7466;53.574;9.976;2022-12-16T01:31:10;-1.10;99.90
14749;DHT22;7466;53.574;9.976;2022-12-16T01:33:37;-1.10;99.90
14749;DHT22;7466;53.574;9.976;2022-12-16T01:36:06;-1.10;99.90
14749;DHT22;7466;53.574;9.976;2022-12-16T01:38:33;-1.20;99.90
14749;DHT22;7466;53.574;9.976;2022-12-16T01:41:01;-1.20;99.90
14749;DHT22;7466;53.574;9.976;2022-12-16T01:43:31;-1.20;99.90
14749;DHT22;7466;53.574;9.976;2022-12-16T01:46:02;-1.20;99.90
14749;DHT22;7466;53.574;9.976;2022-12-16T01:48:38;-1.20;99.90
14749;DHT22;7466;53.574;9.976;2022-12-16T01:51:08;-1.20;99.90
14749;DHT22;7466;53.574;9.976;2022-12-16T01:53:38;-1.20;99.90
14749;DHT22;7466;53.574;9.976;2022-12-16T01:56:06;-1.20;99.90
14749;DHT22;7466;53.574;9.976;2022-12-16T01:58:37;-1.20;99.90
14749;DHT22;7466;53.574;9.976;2022-12-16T02:01:05;-1.30;99.90
14749;DHT22;7466;53.574;9.976;2022-12-16T02:03:34;-1.30;99.90
14749;DHT22;7466;53.574;9.976;2022-12-16T02:06:02;-1.30;99.90
14749;DHT22;7466;53.574;9.976;2022-12-16T02:08:29;-1.40;99.90
14749;DHT22;7466;53.574;9.976;2022-12-16T02:11:14;-1.40;99.90
14749;DHT22;7466;53.574;9.976;2022-12-16T02:13:58;-1.40;99.90
14749;DHT22;7466;53.574;9.976;2022-12-16T02:16:31;-1.50;99.90
14749;DHT22;7466;53.574;9.976;2022-12-16T02:19:08;-1.50;99.90
14749;DHT22;7466;53.574;9.976;2022-12-16T02:21:46;-1.60;99.90
14749;DHT22;7466;53.574;9.976;2022-12-16T02:24:51;-1.60;99.90
14749;DHT22;7466;53.574;9.976;2022-12-16T02:28:00;-1.60;99.90
14749;DHT22;7466;53.574;9.976;2022-12-16T02:30:59;-1.70;99.90
14749;DHT22;7466;53.574;9.976;2022-12-16T02:34:02;-1.70;99.90
14749;DHT22;7466;53.574;9.976;2022-12-16T02:36:40;-1.80;99.90
14749;DHT22;7466;53.574;9.976;2022-12-16T02:39:12;-1.80;99.90
14749;DHT22;7466;53.574;9.976;2022-12-16T02:41:42;-1.80;99.90
14749;DHT22;7466;53.574;9.976;2022-12-16T02:44:15;-1.80;99.90
14749;DHT22;7466;53.574;9.976;2022-12-16T02:46:52;-1.90;99.90
14749;DHT22;7466;53.574;9.976;2022-12-16T02:49:42;-1.90;99.90
14749;DHT22;7466;53.574;9.976;2022-12-16T02:52:11;-1.90;99.90
14749;DHT22;7466;53.574;9.976;2022-12-16T02:54:38;-2.00;99.90
14749;DHT22;7466;53.574;9.976;2022-12-16T02:57:15;-2.00;99.90
14749;DHT22;7466;53.574;9.976;2022-12-16T02:59:51;-2.00;99.90
14749;DHT22;7466;53.574;9.976;2022-12-16T03:02:27;-2.00;99.90
14749;DHT22;7466;53.574;9.976;2022-12-16T03:05:02;-2.00;99.90
14749;DHT22;7466;53.574;9.976;2022-12-16T03:07:32;-2.00;99.90
14749;DHT22;7466;53.574;9.976;2022-12-16T03:10:03;-2.00;99.90
14749;DHT22;7466;53.574;9.976;2022-12-16T03:12:33;-2.10;99.90
14749;DHT22;7466;53.574;9.976;2022-12-16T03:15:02;-2.10;99.90
14749;DHT22;7466;53.574;9.976;2022-12-16T03:17:30;-2.20;99.90
14749;DHT22;7466;53.574;9.976;2022-12-16T03:20:04;-2.20;99.90
14749;DHT22;7466;53.574;9.976;2022-12-16T03:22:36;-2.30;99.90
14749;DHT22;7466;53.574;9.976;2022-12-16T03:25:05;-2.20;99.90
14749;DHT22;7466;53.574;9.976;2022-12-16T03:27:36;-2.20;99.90
14749;DHT22;7466;53.574;9.976;2022-12-16T03:30:08;-2.30;99.90
14749;DHT22;7466;53.574;9.976;2022-12-16T03:32:38;-2.30;99.90
14749;DHT22;7466;53.574;9.976;2022-12-16T03:35:11;-2.30;99.90
14749;DHT22;7466;53.574;9.976;2022-12-16T03:37:40;-2.30;99.90
14749;DHT22;7466;53.574;9.976;2022-12-16T03:40:09;-2.40;99.90
14749;DHT22;7466;53.574;9.976;2022-12-16T03:42:37;-2.40;99.90
14749;DHT22;7466;53.574;9.976;2022-12-16T03:45:06;-2.40;99.90
14749;DHT22;7466;53.574;9.976;2022-12-16T03:47:38;-2.40;99.90
14749;DHT22;7466;53.574;9.976;2022-12-16T03:50:06;-2.50;99.90
14749;DHT22;7466;53.574;9.976;2022-12-16T03:52:33;-2.40;99.90
14749;DHT22;7466;53.574;9.976;2022-12-16T03:55:00;-2.50;99.90
14749;DHT22;7466;53.574;9.976;2022-12-16T03:57:27;-2.60;99.90
14749;DHT22;7466;53.574;9.976;2022-12-16T03:59:54;-2.60;99.90
14749;DHT22;7466;53.574;9.976;2022-12-16T04:02:20;-2.50;99.90
14749;DHT22;7466;53.574;9.976;2022-12-16T04:04:48;-2.50;99.90
14749;DHT22;7466;53.574;9.976;2022-12-16T04:07:15;-2.50;99.90
14749;DHT22;7466;53.574;9.976;2022-12-16T04:09:49;-2.60;99.90
14749;DHT22;7466;53.574;9.976;2022-12-16T04:12:17;-2.60;99.90
14749;DHT22;7466;53.574;9.976;2022-12-16T04:15:02;-2.60;99.90
14749;DHT22;7466;53.574;9.976;2022-12-16T04:17:49;-2.70;99.90
14749;DHT22;7466;53.574;9.976;2022-12-16T04:20:37;-2.70;99.90
14749;DHT22;7466;53.574;9.976;2022-12-16T04:23:23;-2.60;99.90
14749;DHT22;7466;53.574;9.976;2022-12-16T04:26:08;-2.70;99.90
14749;DHT22;7466;53.574;9.976;2022-12-16T04:28:35;-2.70;99.90
14749;DHT22;7466;53.574;9.976;2022-12-16T04:31:01;-2.80;99.90
14749;DHT22;7466;53.574;9.976;2022-12-16T04:33:29;-2.90;99.90
14749;DHT22;7466;53.574;9.976;2022-12-16T04:36:15;-2.80;99.90
14749;DHT22;7466;53.574;9.976;2022-12-16T04:38:59;-2.90;99.90
14749;DHT22;7466;53.574;9.976;2022-12-16T04:41:43;-2.90;99.90
14749;DHT22;7466;53.574;9.976;2022-12-16T04:44:36;-2.90;99.90
14749;DHT22;7466;53.574;9.976;2022-12-16T04:47:20;-2.90;99.90
14749;DHT22;7466;53.574;9.976;2022-12-16T04:50:05;-2.90;99.90
14749;DHT22;7466;53.574;9.976;2022-12-16T04:52:51;-2.90;99.90
14749;DHT22;7466;53.574;9.976;2022-12-16T04:55:36;-2.90;99.90
14749;DHT22;7466;53.574;9.976;2022-12-16T04:58:20;-2.90;99.90
14749;DHT22;7466;53.574;9.976;2022-12-16T05:01:04;-2.90;99.90
14749;DHT22;7466;53.574;9.976;2022-12-16T05:03:48;-3.00;99.90
14749;DHT22;7466;53.574;9.976;2022-12-16T05:06:33;-3.10;99.90
14749;DHT22;7466;53.574;9.976;2022-12-16T05:09:18;-3.10;99.90
14749;DHT22;7466;53.574;9.976;2022-12-16T05:12:03;-3.10;99.90
14749;DHT22;7466;53.574;9.976;2022-12-16T05:14:47;-3.10;99.90
14749;DHT22;7466;53.574;9.976;2022-12-16T05:17:32;-3.10;99.90
14749;DHT22;7466;53.574;9.976;2022-12-16T05:20:18;-3.10;99.90
14749;DHT22;7466;53.574;9.976;2022-12-16T05:23:02;-3.10;99.90
14749;DHT22;7466;53.574;9.976;2022-12-16T05:25:48;-3.20;99.90
14749;DHT22;7466;53.574;9.976;2022-12-16T05:28:32;-3.10;99.90
14749;DHT22;7466;53.574;9.976;2022-12-16T05:31:17;-3.10;99.90
14749;DHT22;7466;53.574;9.976;2022-12-16T05:34:01;-3.20;99.90
14749;DHT22;7466;53.574;9.976;2022-12-16T05:36:48;-3.20;99.90
14749;DHT22;7466;53.574;9.976;2022-12-16T05:39:32;-3.20;99.90
14749;DHT22;7466;53.574;9.976;2022-12-16T05:42:18;-3.20;99.90
14749;DHT22;7466;53.574;9.976;2022-12-16T05:45:03;-3.30;99.90
14749;DHT22;7466;53.574;9.976;2022-12-16T05:47:48;-3.20;99.90
14749;DHT22;7466;53.574;9.976;2022-12-16T05:50:32;-3.30;99.90
14749;DHT22;7466;53.574;9.976;2022-12-16T05:53:17;-3.20;99.90
14749;DHT22;7466;53.574;9.976;2022-12-16T05:56:01;-3.30;99.90
14749;DHT22;7466;53.574;9.976;2022-12-16T05:58:47;-3.20;99.90
14749;DHT22;7466;53.574;9.976;2022-12-16T06:01:38;-3.20;99.90
14749;DHT22;7466;53.574;9.976;2022-12-16T06:04:23;-3.30;99.90
14749;DHT22;7466;53.574;9.976;2022-12-16T06:07:07;-3.20;99.90
14749;DHT22;7466;53.574;9.976;2022-12-16T06:09:51;-3.20;99.90
14749;DHT22;7466;53.574;9.976;2022-12-16T06:12:35;-3.20;99.90
14749;DHT22;7466;53.574;9.976;2022-12-16T06:15:21;-3.10;99.90
14749;DHT22;7466;53.574;9.976;2022-12-16T06:18:05;-3.10;99.90
14749;DHT22;7466;53.574;9.976;2022-12-16T06:20:49;-3.10;99.90
14749;DHT22;7466;53.574;9.976;2022-12-16T06:23:34;-3.10;99.90
14749;DHT22;7466;53.574;9.976;2022-12-16T06:26:18;-3.20;99.90
14749;DHT22;7466;53.574;9.976;2022-12-16T06:29:02;-3.30;99.90
14749;DHT22;7466;53.574;9.976;2022-12-16T06:31:47;-3.20;99.90
14749;DHT22;7466;53.574;9.976;2022-12-16T06:34:32;-3.20;99.90
14749;DHT22;7466;53.574;9.976;2022-12-16T06:37:16;-3.20;99.90
14749;DHT22;7466;53.574;9.976;2022-12-16T06:40:00;-3.30;99.90
14749;DHT22;7466;53.574;9.976;2022-12-16T06:42:45;-3.30;99.90
14749;DHT22;7466;53.574;9.976;2022-12-16T06:45:29;-3.20;99.90
14749;DHT22;7466;53.574;9.976;2022-12-16T06:48:14;-3.20;99.90
14749;DHT22;7466;53.574;9.976;2022-12-16T06:51:00;-3.20;99.90
14749;DHT22;7466;53.574;9.976;2022-12-16T06:53:44;-3.10;99.90
14749;DHT22;7466;53.574;9.976;2022-12-16T06:56:28;-3.10;99.90
14749;DHT22;7466;53.574;9.976;2022-12-16T06:59:12;-3.00;99.90
14749;DHT22;7466;53.574;9.976;2022-12-16T07:01:57;-3.00;99.90
14749;DHT22;7466;53.574;9.976;2022-12-16T07:04:42;-2.90;99.90
14749;DHT22;7466;53.574;9.976;2022-12-16T07:07:26;-2.90;99.90
14749;DHT22;7466;53.574;9.976;2022-12-16T07:10:11;-2.80;99.90
14749;DHT22;7466;53.574;9.976;2022-12-16T07:12:56;-2.80;99.90
14749;DHT22;7466;53.574;9.976;2022-12-16T07:15:43;-2.80;99.90
14749;DHT22;7466;53.574;9.976;2022-12-16T07:18:28;-2.90;99.90
14749;DHT22;7466;53.574;9.976;2022-12-16T07:21:13;-2.90;99.90
14749;DHT22;7466;53.574;9.976;2022-12-16T07:23:58;-2.90;99.90
14749;DHT22;7466;53.574;9.976;2022-12-16T07:26:42;-2.90;99.90
14749;DHT22;7466;53.574;9.976;2022-12-16T07:29:27;-2.80;99.90
14749;DHT22;7466;53.574;9.976;2022-12-16T07:32:11;-2.90;99.90
14749;DHT22;7466;53.574;9.976;2022-12-16T07:34:55;-2.90;99.90
14749;DHT22;7466;53.574;9.976;2022-12-16T07:37:41;-2.80;99.90
14749;DHT22;7466;53.574;9.976;2022-12-16T07:40:25;-2.80;99.90
14749;DHT22;7466;53.574;9.976;2022-12-16T07:43:09;-2.80;99.90
14749;DHT22;7466;53.574;9.976;2022-12-16T07:45:54;-2.80;99.90
14749;DHT22;7466;53.574;9.976;2022-12-16T07:48:38;-2.80;99.90
14749;DHT22;7466;53.574;9.976;2022-12-16T07:51:23;-2.80;99.90
14749;DHT22;7466;53.574;9.976;2022-12-16T07:54:08;-2.80;99.90
14749;DHT22;7466;53.574;9.976;2022-12-16T07:56:53;-2.70;99.90
14749;DHT22;7466;53.574;9.976;2022-12-16T07:59:40;-2.70;99.90
14749;DHT22;7466;53.574;9.976;2022-12-16T08:02:24;-2.70;99.90
14749;DHT22;7466;53.574;9.976;2022-12-16T08:05:08;-2.70;99.90
14749;DHT22;7466;53.574;9.976;2022-12-16T08:07:52;-2.60;99.90
14749;DHT22;7466;53.574;9.976;2022-12-16T08:10:38;-2.60;99.90
14749;DHT22;7466;53.574;9.976;2022-12-16T08:13:22;-2.50;99.90
14749;DHT22;7466;53.574;9.976;2022-12-16T08:16:07;-2.40;99.90
14749;DHT22;7466;53.574;9.976;2022-12-16T08:18:51;-2.30;99.90
14749;DHT22;7466;53.574;9.976;2022-12-16T08:21:35;-2.30;99.90
14749;DHT22;7466;53.574;9.976;2022-12-16T08:24:19;-2.20;99.90
14749;DHT22;7466;53.574;9.976;2022-12-16T08:27:05;-2.10;99.90
14749;DHT22;7466;53.574;9.976;2022-12-16T08:29:49;-2.10;99.90
14749;DHT22;7466;53.574;9.976;2022-12-16T08:32:33;-2.10;99.90
14749;DHT22;7466;53.574;9.976;2022-12-16T08:35:20;-2.00;99.90
14749;DHT22;7466;53.574;9.976;2022-12-16T08:38:05;-2.00;99.90
14749;DHT22;7466;53.574;9.976;2022-12-16T08:40:49;-1.90;99.90
14749;DHT22;7466;53.574;9.976;2022-12-16T08:43:35;-1.90;99.90
14749;DHT22;7466;53.574;9.976;2022-12-16T08:46:19;-1.90;99.90
14749;DHT22;7466;53.574;9.976;2022-12-16T08:49:04;-1.70;99.90
14749;DHT22;7466;53.574;9.976;2022-12-16T08:51:49;-1.70;99.90
14749;DHT22;7466;53.574;9.976;2022-12-16T08:54:33;-1.70;99.90
14749;DHT22;7466;53.574;9.976;2022-12-16T08:57:17;-1.70;99.90
14749;DHT22;7466;53.574;9.976;2022-12-16T09:00:03;-1.60;99.90
14749;DHT22;7466;53.574;9.976;2022-12-16T09:02:51;-1.50;99.90
14749;DHT22;7466;53.574;9.976;2022-12-16T09:05:36;-1.40;99.90
14749;DHT22;7466;53.574;9.976;2022-12-16T09:08:20;-1.30;99.90
14749;DHT22;7466;53.574;9.976;2022-12-16T09:11:04;-1.30;99.90
14749;DHT22;7466;53.574;9.976;2022-12-16T09:13:48;-1.40;99.90
14749;DHT22;7466;53.574;9.976;2022-12-16T09:16:34;-1.30;99.90
14749;DHT22;7466;53.574;9.976;2022-12-16T09:19:18;-1.30;99.90
14749;DHT22;7466;53.574;9.976;2022-12-16T09:22:03;-1.30;99.90
14749;DHT22;7466;53.574;9.976;2022-12-16T09:24:51;-1.20;99.90
14749;DHT22;7466;53.574;9.976;2022-12-16T09:27:35;-1.20;99.90
14749;DHT22;7466;53.574;9.976;2022-12-16T09:30:19;-1.20;99.90
14749;DHT22;7466;53.574;9.976;2022-12-16T09:33:05;-1.20;99.90
14749;DHT22;7466;53.574;9.976;2022-12-16T09:35:46;-1.20;99.90
14749;DHT22;7466;53.574;9.976;2022-12-16T09:38:32;-1.30;99.90
14749;DHT22;7466;53.574;9.976;2022-12-16T09:41:31;-1.20;99.90
14749;DHT22;7466;53.574;9.976;2022-12-16T09:44:23;-1.20;99.90
14749;DHT22;7466;53.574;9.976;2022-12-16T09:47:18;-1.20;99.90
14749;DHT22;7466;53.574;9.976;2022-12-16T09:50:18;-1.30;99.90
14749;DHT22;7466;53.574;9.976;2022-12-16T09:53:04;-1.30;99.90
14749;DHT22;7466;53.574;9.976;2022-12-16T09:55:50;-1.30;99.90
14749;DHT22;7466;53.574;9.976;2022-12-16T09:58:40;-1.20;99.90
14749;DHT22;7466;53.574;9.976;2022-12-16T10:01:25;-1.20;99.90
14749;DHT22;7466;53.574;9.976;2022-12-16T10:04:10;-1.20;99.90
14749;DHT22;7466;53.574;9.976;2022-12-16T10:06:58;-1.30;99.90
14749;DHT22;7466;53.574;9.976;2022-12-16T10:09:49;-1.30;99.90
14749;DHT22;7466;53.574;9.976;2022-12-16T10:12:41;-1.20;99.90
14749;DHT22;7466;53.574;9.976;2022-12-16T10:15:35;-1.20;99.90
14749;DHT22;7466;53.574;9.976;2022-12-16T10:18:38;-1.30;99.90
14749;DHT22;7466;53.574;9.976;2022-12-16T10:21:28;-1.30;99.90
14749;DHT22;7466;53.574;9.976;2022-12-16T10:24:24;-1.20;99.90
14749;DHT22;7466;53.574;9.976;2022-12-16T10:27:14;-1.40;99.90
14749;DHT22;7466;53.574;9.976;2022-12-16T10:29:59;-1.40;99.90
14749;DHT22;7466;53.574;9.976;2022-12-16T10:32:46;-1.30;99.90
14749;DHT22;7466;53.574;9.976;2022-12-16T10:35:35;-1.30;99.90
14749;DHT22;7466;53.574;9.976;2022-12-16T10:38:22;-1.30;99.90
14749;DHT22;7466;53.574;9.976;2022-12-16T10:41:17;-1.30;99.90
14749;DHT22;7466;53.574;9.976;2022-12-16T10:44:09;-1.30;99.90
14749;DHT22;7466;53.574;9.976;2022-12-16T10:46:59;-1.30;99.90
14749;DHT22;7466;53.574;9.976;2022-12-16T10:49:43;-1.30;99.90
14749;DHT22;7466;53.574;9.976;2022-12-16T10:52:28;-1.20;99.90
14749;DHT22;7466;53.574;9.976;2022-12-16T10:55:21;-1.20;99.90
14749;DHT22;7466;53.574;9.976;2022-12-16T10:58:16;-1.30;99.90
14749;DHT22;7466;53.574;9.976;2022-12-16T11:01:19;-1.20;99.90
14749;DHT22;7466;53.574;9.976;2022-12-16T11:04:00;-1.10;99.90
14749;DHT22;7466;53.574;9.976;2022-12-16T11:06:46;-1.10;99.90
14749;DHT22;7466;53.574;9.976;2022-12-16T11:09:32;-1.10;99.90
14749;DHT22;7466;53.574;9.976;2022-12-16T11:12:23;-1.10;99.90
14749;DHT22;7466;53.574;9.976;2022-12-16T11:15:21;-1.00;99.90
14749;DHT22;7466;53.574;9.976;2022-12-16T11:18:09;-1.00;99.90
14749;DHT22;7466;53.574;9.976;2022-12-16T11:21:13;-1.00;99.90
14749;DHT22;7466;53.574;9.976;2022-12-16T11:24:13;-0.90;99.90
14749;DHT22;7466;53.574;9.976;2022-12-16T11:26:59;-0.90;99.90
14749;DHT22;7466;53.574;9.976;2022-12-16T11:29:52;-1.00;99.90
14749;DHT22;7466;53.574;9.976;2022-12-16T11:32:40;-0.90;99.90
14749;DHT22;7466;53.574;9.976;2022-12-16T11:35:33;-0.90;99.90
14749;DHT22;7466;53.574;9.976;2022-12-16T11:38:21;-0.80;99.90
14749;DHT22;7466;53.574;9.976;2022-12-16T11:41:08;-0.80;99.90
14749;DHT22;7466;53.574;9.976;2022-12-16T11:43:54;-0.80;99.90
14749;DHT22;7466;53.574;9.976;2022-12-16T11:46:42;-0.90;99.90
14749;DHT22;7466;53.574;9.976;2022-12-16T11:49:30;-0.90;99.90
14749;DHT22;7466;53.574;9.976;2022-12-16T11:52:16;-0.90;99.90
14749;DHT22;7466;53.574;9.976;2022-12-16T11:55:16;-0.90;99.90
14749;DHT22;7466;53.574;9.976;2022-12-16T11:58:08;-0.90;99.90
14749;DHT22;7466;53.574;9.976;2022-12-16T12:01:02;-0.80;99.90
14749;DHT22;7466;53.574;9.976;2022-12-16T12:03:48;-0.80;99.90
14749;DHT22;7466;53.574;9.976;2022-12-16T12:06:48;-0.70;99.90
14749;DHT22;7466;53.574;9.976;2022-12-16T12:09:40;-0.80;99.90
14749;DHT22;7466;53.574;9.976;2022-12-16T12:12:32;-0.80;99.90
14749;DHT22;7466;53.574;9.976;2022-12-16T12:15:20;-0.80;99.90
14749;DHT22;7466;53.574;9.976;2022-12-16T12:18:15;-0.70;99.90
14749;DHT22;7466;53.574;9.976;2022-12-16T12:21:05;-0.70;99.90
14749;DHT22;7466;53.574;9.976;2022-12-16T12:24:01;-0.70;99.90
14749;DHT22;7466;53.574;9.976;2022-12-16T12:26:56;-0.70;99.90
14749;DHT22;7466;53.574;9.976;2022-12-16T12:29:53;-0.70;99.90
14749;DHT22;7466;53.574;9.976;2022-12-16T12:32:47;-0.70;99.90
14749;DHT22;7466;53.574;9.976;2022-12-16T12:35:47;-0.70;99.90
14749;DHT22;7466;53.574;9.976;2022-12-16T12:38:46;-0.70;99.90
14749;DHT22;7466;53.574;9.976;2022-12-16T12:41:50;-0.50;99.90
14749;DHT22;7466;53.574;9.976;2022-12-16T12:44:45;-0.50;99.90
14749;DHT22;7466;53.574;9.976;2022-12-16T12:47:32;-0.50;99.90
14749;DHT22;7466;53.574;9.976;2022-12-16T12:50:23;-0.40;99.90
14749;DHT22;7466;53.574;9.976;2022-12-16T12:53:19;-0.40;99.90
14749;DHT22;7466;53.574;9.976;2022-12-16T12:56:12;-0.30;99.90
14749;DHT22;7466;53.574;9.976;2022-12-16T12:59:08;-0.40;99.90
14749;DHT22;7466;53.574;9.976;2022-12-16T13:01:55;-0.40;99.90
14749;DHT22;7466;53.574;9.976;2022-12-16T13:04:40;-0.50;99.90
14749;DHT22;7466;53.574;9.976;2022-12-16T13:07:26;-0.40;99.90
14749;DHT22;7466;53.574;9.976;2022-12-16T13:10:13;-0.30;99.90
14749;DHT22;7466;53.574;9.976;2022-12-16T13:13:20;-0.20;99.90
14749;DHT22;7466;53.574;9.976;2022-12-16T13:16:10;-0.20;99.90
14749;DHT22;7466;53.574;9.976;2022-12-16T13:22:27;0.00;99.90
14749;DHT22;7466;53.574;9.976;2022-12-16T13:25:32;0.00;99.90
14749;DHT22;7466;53.574;9.976;2022-12-16T13:28:23;0.10;99.90
14749;DHT22;7466;53.574;9.976;2022-12-16T13:31:10;0.10;99.90
14749;DHT22;7466;53.574;9.976;2022-12-16T13:34:00;0.00;99.90
14749;DHT22;7466;53.574;9.976;2022-12-16T13:36:52;-0.10;99.90
14749;DHT22;7466;53.574;9.976;2022-12-16T13:39:37;-0.20;99.90
14749;DHT22;7466;53.574;9.976;2022-12-16T13:42:48;-0.30;99.90
14749;DHT22;7466;53.574;9.976;2022-12-16T13:45:36;-0.50;99.90
14749;DHT22;7466;53.574;9.976;2022-12-16T13:48:43;-0.60;99.90
14749;DHT22;7466;53.574;9.976;2022-12-16T13:54:59;-0.70;99.90
14749;DHT22;7466;53.574;9.976;2022-12-16T13:57:47;-0.80;99.90
14749;DHT22;7466;53.574;9.976;2022-12-16T14:00:35;-0.80;99.90
14749;DHT22;7466;53.574;9.976;2022-12-16T14:03:26;-0.80;99.90
14749;DHT22;7466;53.574;9.976;2022-12-16T14:06:24;-0.70;99.90
14749;DHT22;7466;53.574;9.976;2022-12-16T14:09:28;-0.70;99.90
14749;DHT22;7466;53.574;9.976;2022-12-16T14:12:23;-0.70;99.90
14749;DHT22;7466;53.574;9.976;2022-12-16T14:15:21;-0.70;99.90
14749;DHT22;7466;53.574;9.976;2022-12-16T14:18:12;-0.70;99.90
14749;DHT22;7466;53.574;9.976;2022-12-16T14:21:01;-0.70;99.90
14749;DHT22;7466;53.574;9.976;2022-12-16T14:23:51;-0.80;99.90
14749;DHT22;7466;53.574;9.976;2022-12-16T14:26:37;-0.80;99.90
14749;DHT22;7466;53.574;9.976;2022-12-16T14:29:24;-0.90;99.90
14749;DHT22;7466;53.574;9.976;2022-12-16T14:32:25;-0.90;99.90
14749;DHT22;7466;53.574;9.976;2022-12-16T14:35:14;-1.00;99.90
14749;DHT22;7466;53.574;9.976;2022-12-16T14:38:13;-1.00;99.90
14749;DHT22;7466;53.574;9.976;2022-12-16T14:41:04;-1.00;99.90
14749;DHT22;7466;53.574;9.976;2022-12-16T14:43:51;-1.10;99.90
14749;DHT22;7466;53.574;9.976;2022-12-16T14:46:35;-1.10;99.90
14749;DHT22;7466;53.574;9.976;2022-12-16T14:49:22;-1.20;99.90
14749;DHT22;7466;53.574;9.976;2022-12-16T14:52:16;-1.20;99.90
14749;DHT22;7466;53.574;9.976;2022-12-16T14:55:09;-1.30;99.90
14749;DHT22;7466;53.574;9.976;2022-12-16T14:58:09;-1.30;99.90
14749;DHT22;7466;53.574;9.976;2022-12-16T15:00:57;-1.30;99.90
14749;DHT22;7466;53.574;9.976;2022-12-16T15:03:43;-1.30;99.90
14749;DHT22;7466;53.574;9.976;2022-12-16T15:06:34;-1.40;99.90
14749;DHT22;7466;53.574;9.976;2022-12-16T15:09:23;-1.40;99.90
14749;DHT22;7466;53.574;9.976;2022-12-16T15:12:10;-1.50;99.90
14749;DHT22;7466;53.574;9.976;2022-12-16T15:14:57;-1.60;99.90
14749;DHT22;7466;53.574;9.976;2022-12-16T15:17:49;-1.60;99.90
14749;DHT22;7466;53.574;9.976;2022-12-16T15:20:37;-1.70;99.90
14749;DHT22;7466;53.574;9.976;2022-12-16T15:23:24;-1.60;99.90
14749;DHT22;7466;53.574;9.976;2022-12-16T15:26:16;-1.60;99.90
14749;DHT22;7466;53.574;9.976;2022-12-16T15:29:01;-1.60;99.90
14749;DHT22;7466;53.574;9.976;2022-12-16T15:31:47;-1.60;99.90
14749;DHT22;7466;53.574;9.976;2022-12-16T15:34:36;-1.60;99.90
14749;DHT22;7466;53.574;9.976;2022-12-16T15:37:23;-1.50;99.90
14749;DHT22;7466;53.574;9.976;2022-12-16T15:40:21;-1.50;99.90
14749;DHT22;7466;53.574;9.976;2022-12-16T15:43:19;-1.50;99.90
14749;DHT22;7466;53.574;9.976;2022-12-16T15:46:04;-1.40;99.90
14749;DHT22;7466;53.574;9.976;2022-12-16T15:48:50;-1.40;99.90
14749;DHT22;7466;53.574;9.976;2022-12-16T15:51:42;-1.40;99.90
14749;DHT22;7466;53.574;9.976;2022-12-16T15:54:28;-1.30;99.90
14749;DHT22;7466;53.574;9.976;2022-12-16T15:57:28;-1.30;99.90
14749;DHT22;7466;53.574;9.976;2022-12-16T16:00:20;-1.30;99.90
14749;DHT22;7466;53.574;9.976;2022-12-16T16:03:18;-1.30;99.90
14749;DHT22;7466;53.574;9.976;2022-12-16T16:06:13;-1.20;99.90
14749;DHT22;7466;53.574;9.976;2022-12-16T16:09:14;-1.30;99.90
14749;DHT22;7466;53.574;9.976;2022-12-16T16:11:58;-1.20;99.90
14749;DHT22;7466;53.574;9.976;2022-12-16T16:14:42;-1.20;99.90
14749;DHT22;7466;53.574;9.976;2022-12-16T16:17:27;-1.30;99.90
14749;DHT22;7466;53.574;9.976;2022-12-16T16:20:14;-1.30;99.90
14749;DHT22;7466;53.574;9.976;2022-12-16T16:23:00;-1.30;99.90
14749;DHT22;7466;53.574;9.976;2022-12-16T16:25:46;-1.30;99.90
14749;DHT22;7466;53.574;9.976;2022-12-16T16:28:30;-1.30;99.90
14749;DHT22;7466;53.574;9.976;2022-12-16T16:31:14;-1.20;99.90
14749;DHT22;7466;53.574;9.976;2022-12-16T16:33:59;-1.20;99.90
14749;DHT22;7466;53.574;9.976;2022-12-16T16:36:43;-1.30;99.90
14749;DHT22;7466;53.574;9.976;2022-12-16T16:39:28;-1.30;99.90
14749;DHT22;7466;53.574;9.976;2022-12-16T16:42:12;-1.30;99.90
14749;DHT22;7466;53.574;9.976;2022-12-16T16:44:56;-1.30;99.90
14749;DHT22;7466;53.574;9.976;2022-12-16T16:47:41;-1.30;99.90
14749;DHT22;7466;53.574;9.976;2022-12-16T16:50:25;-1.30;99.90
14749;DHT22;7466;53.574;9.976;2022-12-16T16:53:13;-1.30;99.90
14749;DHT22;7466;53.574;9.976;2022-12-16T16:56:00;-1.30;99.90
14749;DHT22;7466;53.574;9.976;2022-12-16T16:58:44;-1.30;99.90
14749;DHT22;7466;53.574;9.976;2022-12-16T17:01:28;-1.30;99.90
14749;DHT22;7466;53.574;9.976;2022-12-16T17:04:12;-1.30;99.90
14749;DHT22;7466;53.574;9.976;2022-12-16T17:06:56;-1.30;99.90
14749;DHT22;7466;53.574;9.976;2022-12-16T17:09:41;-1.30;99.90
14749;DHT22;7466;53.574;9.976;2022-12-16T17:12:28;-1.30;99.90
14749;DHT22;7466;53.574;9.976;2022-12-16T17:15:18;-1.30;99.90
14749;DHT22;7466;53.574;9.976;2022-12-16T17:18:04;-1.30;99.90
14749;DHT22;7466;53.574;9.976;2022-12-16T17:20:48;-1.30;99.90
14749;DHT22;7466;53.574;9.976;2022-12-16T17:23:33;-1.30;99.90
14749;DHT22;7466;53.574;9.976;2022-12-16T17:26:17;-1.30;99.90
14749;DHT22;7466;53.574;9.976;2022-12-16T17:29:03;-1.30;99.90
14749;DHT22;7466;53.574;9.976;2022-12-16T17:31:48;-1.30;99.90
14749;DHT22;7466;53.574;9.976;2022-12-16T17:34:32;-1.40;99.90
14749;DHT22;7466;53.574;9.976;2022-12-16T17:37:16;-1.30;99.90